sensor_id;sensor_type;location;lat;lon;timestamp;pressure;altitude;pressure_sealevel;temperature;humidity
62031;BME280;62035;52.094;5.112;2023-05-10T00:00:27;100965.97;;;13.96;100.00
62031;BME280;62035;52.094;5.112;2023-05-10T00:02:55;100964.94;;;13.73;100.00
62031;BME280;62035;52.094;5.112;2023-05-10T00:05:22;100954.72;;;13.68;100.00
62031;BME280;62035;52.094;5.112;2023-05-10T00:07:50;100954.91;;;13.75;100.00
62031;BME280;62035;52.094;5.112;2023-05-10T00:10:19;100951.06;;;13.69;100.00
62031;BME280;62035;52.094;5.112;2023-05-10T00:12:46;100944.53;;;13.64;100.00
62031;BME280;62035;52.094;5.112;2023-05-10T00:15:14;100950.88;;;13.63;100.00
62031;BME280;62035;52.094;5.112;2023-05-10T00:17:42;100951.06;;;13.53;100.00
62031;BME280;62035;52.094;5.112;2023-05-10T00:20:10;100959.44;;;13.58;100.00
62031;BME280;62035;52.094;5.112;2023-05-10T00:22:38;100950.56;;;13.58;100.00
62031;BME280;62035;52.094;5.112;2023-05-10T00:25:07;100951.56;;;13.49;100.00
62031;BME280;62035;52.094;5.112;2023-05-10T00:27:37;100958.09;;;13.54;100.00
62031;BME280;62035;52.094;5.112;2023-05-10T00:30:06;100958.56;;;13.66;100.00
62031;BME280;62035;52.094;5.112;2023-05-10T00:32:34;100959.56;;;13.65;100.00
62031;BME280;62035;52.094;5.112;2023-05-10T00:35:02;100957.25;;;13.46;100.00
62031;BME280;62035;52.094;5.112;2023-05-10T00:37:29;100954.91;;;13.43;100.00
62031;BME280;62035;52.094;5.112;2023-05-10T00:39:57;100957.22;;;13.62;100.00
62031;BME280;62035;52.094;5.112;2023-05-10T00:42:25;100964.59;;;13.76;100.00
62031;BME280;62035;52.094;5.112;2023-05-10T00:44:53;100961.25;;;13.74;100.00
62031;BME280;62035;52.094;5.112;2023-05-10T00:47:21;100966.47;;;13.92;100.00
62031;BME280;62035;52.094;5.112;2023-05-10T00:49:49;100969.97;;;13.84;100.00
62031;BME280;62035;52.094;5.112;2023-05-10T00:52:17;100963.59;;;14.01;100.00
62031;BME280;62035;52.094;5.112;2023-05-10T00:54:46;100964.59;;;14.00;100.00
62031;BME280;62035;52.094;5.112;2023-05-10T00:57:14;100967.47;;;13.83;100.00
62031;BME280;62035;52.094;5.112;2023-05-10T00:59:42;100967.97;;;13.86;100.00
62031;BME280;62035;52.094;5.112;2023-05-10T01:02:11;100965.44;;;13.93;100.00
62031;BME280;62035;52.094;5.112;2023-05-10T01:04:39;100970.13;;;13.91;100.00
62031;BME280;62035;52.094;5.112;2023-05-10T01:07:07;100968.09;;;14.09;100.00
62031;BME280;62035;52.094;5.112;2023-05-10T01:09:34;100965.41;;;14.17;100.00
62031;BME280;62035;52.094;5.112;2023-05-10T01:12:02;100966.41;;;14.16;100.00
62031;BME280;62035;52.094;5.112;2023-05-10T01:14:33;100951.19;;;14.09;100.00
62031;BME280;62035;52.094;5.112;2023-05-10T01:17:03;100952.03;;;14.09;100.00
62031;BME280;62035;52.094;5.112;2023-05-10T01:19:34;100970.63;;;13.94;100.00
62031;BME280;62035;52.094;5.112;2023-05-10T01:22:10;100955.91;;;13.82;100.00
62031;BME280;62035;52.094;5.112;2023-05-10T01:25:19;100955.59;;;13.93;100.00
62031;BME280;62035;52.094;5.112;2023-05-10T01:28:16;100951.06;;;13.53;100.00
62031;BME280;62035;52.094;5.112;2023-05-10T01:31:18;100961.44;;;13.73;100.00
62031;BME280;62035;52.094;5.112;2023-05-10T01:33:59;100964.59;;;13.68;100.00
62031;BME280;62035;52.094;5.112;2023-05-10T01:36:40;100966.09;;;13.62;100.00
62031;BME280;62035;52.094;5.112;2023-05-10T01:39:17;100960.25;;;13.51;100.00
62031;BME280;62035;52.094;5.112;2023-05-10T01:41:55;100956.41;;;13.53;100.00
62031;BME280;62035;52.094;5.112;2023-05-10T01:44:39;100961.91;;;13.60;100.00
62031;BME280;62035;52.094;5.112;2023-05-10T01:47:15;100963.94;;;13.58;100.00
62031;BME280;62035;52.094;5.112;2023-05-10T01:49:50;100975.13;;;13.45;100.00
62031;BME280;62035;52.094;5.112;2023-05-10T01:52:26;100973.09;;;13.39;100.00
62031;BME280;62035;52.094;5.112;2023-05-10T01:55:02;100978.59;;;13.38;100.00
62031;BME280;62035;52.094;5.112;2023-05-10T01:57:33;100979.28;;;13.40;100.00
62031;BME280;62035;52.094;5.112;2023-05-10T02:00:04;100975.78;;;13.39;100.00
62031;BME280;62035;52.094;5.112;2023-05-10T02:02:37;100983.63;;;13.41;100.00
62031;BME280;62035;52.094;5.112;2023-05-10T02:05:09;100985.09;;;13.27;100.00
62031;BME280;62035;52.094;5.112;2023-05-10T02:07:39;100995.25;;;13.23;100.00
62031;BME280;62035;52.094;5.112;2023-05-10T02:10:09;100987.63;;;13.37;100.00
62031;BME280;62035;52.094;5.112;2023-05-10T02:12:41;100990.91;;;13.22;100.00
62031;BME280;62035;52.094;5.112;2023-05-10T02:15:16;100989.44;;;13.28;100.00
62031;BME280;62035;52.094;5.112;2023-05-10T02:17:47;100986.75;;;13.28;100.00
62031;BME280;62035;52.094;5.112;2023-05-10T02:20:19;100990.28;;;13.37;100.00
62031;BME280;62035;52.094;5.112;2023-05-10T02:22:51;100992.81;;;13.46;100.00
62031;BME280;62035;52.094;5.112;2023-05-10T02:25:22;100990.69;;;13.58;100.00
62031;BME280;62035;52.094;5.112;2023-05-10T02:27:53;100997.31;;;13.38;100.00
62031;BME280;62035;52.094;5.112;2023-05-10T02:30:23;100994.19;;;13.58;100.00
62031;BME280;62035;52.094;5.112;2023-05-10T02:32:52;100997.38;;;13.70;100.00
62031;BME280;62035;52.094;5.112;2023-05-10T02:35:22;100995.03;;;13.75;100.00
62031;BME280;62035;52.094;5.112;2023-05-10T02:37:52;100998.19;;;13.71;100.00
62031;BME280;62035;52.094;5.112;2023-05-10T02:40:21;100998.03;;;13.80;100.00
62031;BME280;62035;52.094;5.112;2023-05-10T02:42:52;100997.88;;;13.82;100.00
62031;BME280;62035;52.094;5.112;2023-05-10T02:45:25;100992.66;;;13.64;100.00
62031;BME280;62035;52.094;5.112;2023-05-10T02:47:56;100993.66;;;13.63;100.00
62031;BME280;62035;52.094;5.112;2023-05-10T02:50:27;101001.34;;;13.50;100.00
62031;BME280;62035;52.094;5.112;2023-05-10T02:53:00;101003.72;;;13.53;100.00
62031;BME280;62035;52.094;5.112;2023-05-10T02:55:37;100995.34;;;13.64;100.00
62031;BME280;62035;52.094;5.112;2023-05-10T02:58:08;101008.03;;;13.62;100.00
62031;BME280;62035;52.094;5.112;2023-05-10T03:00:36;101009.25;;;13.59;100.00
62031;BME280;62035;52.094;5.112;2023-05-10T03:03:03;101003.06;;;13.75;100.00
62031;BME280;62035;52.094;5.112;2023-05-10T03:05:32;101014.41;;;13.61;100.00
62031;BME280;62035;52.094;5.112;2023-05-10T03:08:00;101010.56;;;13.63;100.00
62031;BME280;62035;52.094;5.112;2023-05-10T03:10:30;101009.25;;;13.59;100.00
62031;BME280;62035;52.094;5.112;2023-05-10T03:13:15;101009.56;;;13.64;100.00
62031;BME280;62035;52.094;5.112;2023-05-10T03:15:56;101005.06;;;13.57;100.00
62031;BME280;62035;52.094;5.112;2023-05-10T03:18:30;101009.41;;;13.58;100.00
62031;BME280;62035;52.094;5.112;2023-05-10T03:21:07;101013.41;;;13.54;100.00
62031;BME280;62035;52.094;5.112;2023-05-10T03:23:41;101006.53;;;13.51;100.00
62031;BME280;62035;52.094;5.112;2023-05-10T03:26:17;101005.19;;;13.39;100.00
62031;BME280;62035;52.094;5.112;2023-05-10T03:28:52;101016.06;;;13.54;100.00
62031;BME280;62035;52.094;5.112;2023-05-10T03:31:21;101011.91;;;13.51;100.00
62031;BME280;62035;52.094;5.112;2023-05-10T03:33:50;101012.06;;;13.58;100.00
62031;BME280;62035;52.094;5.112;2023-05-10T03:36:20;101014.91;;;13.48;100.00
62031;BME280;62035;52.094;5.112;2023-05-10T03:38:48;101015.56;;;13.50;100.00
62031;BME280;62035;52.094;5.112;2023-05-10T03:41:15;101018.25;;;13.50;100.00
62031;BME280;62035;52.094;5.112;2023-05-10T03:43:43;101017.09;;;13.77;100.00
62031;BME280;62035;52.094;5.112;2023-05-10T03:46:11;101019.78;;;13.85;100.00
62031;BME280;62035;52.094;5.112;2023-05-10T03:48:38;101015.44;;;13.92;100.00
62031;BME280;62035;52.094;5.112;2023-05-10T03:51:06;101006.25;;;13.87;100.00
62031;BME280;62035;52.094;5.112;2023-05-10T03:53:35;101016.13;;;13.94;100.00
62031;BME280;62035;52.094;5.112;2023-05-10T03:56:03;101013.28;;;13.96;100.00
62031;BME280;62035;52.094;5.112;2023-05-10T03:58:30;101020.81;;;13.92;100.00
62031;BME280;62035;52.094;5.112;2023-05-10T04:00:58;101017.13;;;13.93;100.00
62031;BME280;62035;52.094;5.112;2023-05-10T04:03:26;101020.13;;;13.98;100.00
62031;BME280;62035;52.094;5.112;2023-05-10T04:05:58;101009.56;;;14.05;100.00
62031;BME280;62035;52.094;5.112;2023-05-10T04:08:27;101012.41;;;14.03;100.00
62031;BME280;62035;52.094;5.112;2023-05-10T04:11:04;101009.44;;;13.90;100.00
62031;BME280;62035;52.094;5.112;2023-05-10T04:13:33;101007.41;;;13.84;100.00
62031;BME280;62035;52.094;5.112;2023-05-10T04:16:01;101011.91;;;14.00;100.00
62031;BME280;62035;52.094;5.112;2023-05-10T04:18:28;101014.28;;;13.95;100.00
62031;BME280;62035;52.094;5.112;2023-05-10T04:20:57;101014.09;;;13.88;100.00
62031;BME280;62035;52.094;5.112;2023-05-10T04:23:24;101010.75;;;13.86;100.00
62031;BME280;62035;52.094;5.112;2023-05-10T04:25:52;101014.09;;;13.88;100.00
62031;BME280;62035;52.094;5.112;2023-05-10T04:28:28;101022.44;;;14.01;100.00
62031;BME280;62035;52.094;5.112;2023-05-10T04:31:00;101016.59;;;14.06;100.00
62031;BME280;62035;52.094;5.112;2023-05-10T04:33:29;101020.97;;;13.99;100.00
62031;BME280;62035;52.094;5.112;2023-05-10T04:35:56;101026.31;;;13.99;100.00
62031;BME280;62035;52.094;5.112;2023-05-10T04:38:24;101027.13;;;13.99;100.00
62031;BME280;62035;52.094;5.112;2023-05-10T04:40:52;101023.44;;;14.00;100.00
62031;BME280;62035;52.094;5.112;2023-05-10T04:43:22;101025.50;;;13.98;100.00
62031;BME280;62035;52.094;5.112;2023-05-10T04:45:49;101021.31;;;13.96;100.00
62031;BME280;62035;52.094;5.112;2023-05-10T04:48:17;101017.25;;;14.00;100.00
62031;BME280;62035;52.094;5.112;2023-05-10T04:50:44;101019.81;;;13.93;100.00
62031;BME280;62035;52.094;5.112;2023-05-10T04:53:12;101029.66;;;13.85;100.00
62031;BME280;62035;52.094;5.112;2023-05-10T04:55:39;101031.97;;;13.72;100.00
62031;BME280;62035;52.094;5.112;2023-05-10T04:58:07;101031.47;;;13.68;100.00
62031;BME280;62035;52.094;5.112;2023-05-10T05:00:36;101039.50;;;13.76;100.00
62031;BME280;62035;52.094;5.112;2023-05-10T05:03:04;101043.53;;;13.80;100.00
62031;BME280;62035;52.094;5.112;2023-05-10T05:05:31;101038.16;;;13.80;100.00
62031;BME280;62035;52.094;5.112;2023-05-10T05:07:59;101042.34;;;13.83;100.00
62031;BME280;62035;52.094;5.112;2023-05-10T05:10:27;101053.56;;;13.86;100.00
62031;BME280;62035;52.094;5.112;2023-05-10T05:12:54;101050.03;;;13.78;100.00
62031;BME280;62035;52.094;5.112;2023-05-10T05:15:22;101058.09;;;13.86;100.00
62031;BME280;62035;52.094;5.112;2023-05-10T05:17:51;101051.19;;;13.75;100.00
62031;BME280;62035;52.094;5.112;2023-05-10T05:20:18;101043.81;;;13.61;100.00
62031;BME280;62035;52.094;5.112;2023-05-10T05:22:46;101056.34;;;13.60;100.00
62031;BME280;62035;52.094;5.112;2023-05-10T05:25:13;101059.69;;;13.54;100.00
62031;BME280;62035;52.094;5.112;2023-05-10T05:27:42;101066.56;;;13.65;100.00
62031;BME280;62035;52.094;5.112;2023-05-10T05:30:10;101073.25;;;13.69;100.00
62031;BME280;62035;52.094;5.112;2023-05-10T05:32:38;101070.38;;;13.46;100.00
62031;BME280;62035;52.094;5.112;2023-05-10T05:35:08;101083.47;;;13.23;100.00
62031;BME280;62035;52.094;5.112;2023-05-10T05:37:35;101081.09;;;13.20;100.00
62031;BME280;62035;52.094;5.112;2023-05-10T05:40:04;101078.63;;;13.27;100.00
62031;BME280;62035;52.094;5.112;2023-05-10T05:42:32;101082.97;;;13.28;100.00
62031;BME280;62035;52.094;5.112;2023-05-10T05:45:00;101086.13;;;13.23;100.00
62031;BME280;62035;52.094;5.112;2023-05-10T05:47:27;101086.28;;;13.22;100.00
62031;BME280;62035;52.094;5.112;2023-05-10T05:49:55;101095.50;;;13.27;100.00
62031;BME280;62035;52.094;5.112;2023-05-10T05:52:24;101096.91;;;13.40;100.00
62031;BME280;62035;52.094;5.112;2023-05-10T05:54:51;101093.84;;;13.26;100.00
62031;BME280;62035;52.094;5.112;2023-05-10T05:57:19;101092.19;;;13.33;100.00
62031;BME280;62035;52.094;5.112;2023-05-10T05:59:47;101093.91;;;13.43;100.00
62031;BME280;62035;52.094;5.112;2023-05-10T06:02:15;101095.97;;;13.57;100.00
62031;BME280;62035;52.094;5.112;2023-05-10T06:04:42;101098.44;;;13.50;100.00
62031;BME280;62035;52.094;5.112;2023-05-10T06:07:10;101097.28;;;13.53;100.00
62031;BME280;62035;52.094;5.112;2023-05-10T06:09:39;101096.94;;;13.48;100.00
62031;BME280;62035;52.094;5.112;2023-05-10T06:12:06;101092.56;;;13.39;100.00
62031;BME280;62035;52.094;5.112;2023-05-10T06:14:34;101107.75;;;13.38;100.00
62031;BME280;62035;52.094;5.112;2023-05-10T06:17:01;101101.06;;;13.34;100.00
62031;BME280;62035;52.094;5.112;2023-05-10T06:19:31;101105.56;;;13.33;100.00
62031;BME280;62035;52.094;5.112;2023-05-10T06:21:58;101101.59;;;13.46;100.00
62031;BME280;62035;52.094;5.112;2023-05-10T06:24:26;101102.28;;;13.48;100.00
62031;BME280;62035;52.094;5.112;2023-05-10T06:26:55;101098.41;;;13.42;100.00
62031;BME280;62035;52.094;5.112;2023-05-10T06:29:26;101093.47;;;13.55;100.00
62031;BME280;62035;52.094;5.112;2023-05-10T06:31:53;101094.97;;;13.66;100.00
62031;BME280;62035;52.094;5.112;2023-05-10T06:34:21;101100.72;;;13.87;100.00
62031;BME280;62035;52.094;5.112;2023-05-10T06:36:48;101101.41;;;13.97;100.00
62031;BME280;62035;52.094;5.112;2023-05-10T06:39:16;101069.63;;;13.94;100.00
62031;BME280;62035;52.094;5.112;2023-05-10T06:41:43;101092.56;;;14.21;100.00
62031;BME280;62035;52.094;5.112;2023-05-10T06:44:12;101087.38;;;14.20;100.00
62031;BME280;62035;52.094;5.112;2023-05-10T06:46:40;101089.03;;;14.21;100.00
62031;BME280;62035;52.094;5.112;2023-05-10T06:49:08;101094.75;;;14.26;100.00
62031;BME280;62035;52.094;5.112;2023-05-10T06:51:35;101094.06;;;14.24;100.00
62031;BME280;62035;52.094;5.112;2023-05-10T06:54:03;101092.22;;;14.32;100.00
62031;BME280;62035;52.094;5.112;2023-05-10T06:56:30;101100.78;;;14.44;100.00
62031;BME280;62035;52.094;5.112;2023-05-10T06:58:58;101098.94;;;14.61;100.00
62031;BME280;62035;52.094;5.112;2023-05-10T07:01:27;101100.78;;;14.68;100.00
62031;BME280;62035;52.094;5.112;2023-05-10T07:03:54;101104.09;;;14.79;100.00
62031;BME280;62035;52.094;5.112;2023-05-10T07:06:22;101103.22;;;14.86;100.00
62031;BME280;62035;52.094;5.112;2023-05-10T07:08:49;101110.31;;;14.79;100.00
62031;BME280;62035;52.094;5.112;2023-05-10T07:11:17;101107.53;;;15.12;100.00
62031;BME280;62035;52.094;5.112;2023-05-10T07:13:44;101109.56;;;15.10;100.00
62031;BME280;62035;52.094;5.112;2023-05-10T07:16:12;101107.41;;;14.97;100.00
62031;BME280;62035;52.094;5.112;2023-05-10T07:18:41;101122.47;;;14.98;100.00
62031;BME280;62035;52.094;5.112;2023-05-10T07:21:08;101120.31;;;14.93;100.00
62031;BME280;62035;52.094;5.112;2023-05-10T07:23:36;101120.13;;;15.03;100.00
62031;BME280;62035;52.094;5.112;2023-05-10T07:26:04;101116.09;;;15.07;100.00
62031;BME280;62035;52.094;5.112;2023-05-10T07:28:31;101120.47;;;14.92;100.00
62031;BME280;62035;52.094;5.112;2023-05-10T07:30:59;101123.47;;;14.97;100.00
62031;BME280;62035;52.094;5.112;2023-05-10T07:33:26;101137.53;;;15.07;100.00
62031;BME280;62035;52.094;5.112;2023-05-10T07:35:55;101132.66;;;15.19;100.00
62031;BME280;62035;52.094;5.112;2023-05-10T07:38:23;101136.13;;;15.27;100.00
62031;BME280;62035;52.094;5.112;2023-05-10T07:40:50;101141.28;;;15.37;100.00
62031;BME280;62035;52.094;5.112;2023-05-10T07:43:18;101133.06;;;15.39;100.00
62031;BME280;62035;52.094;5.112;2023-05-10T07:45:45;101127.91;;;15.29;100.00
62031;BME280;62035;52.094;5.112;2023-05-10T07:48:13;101129.59;;;15.22;100.00
62031;BME280;62035;52.094;5.112;2023-05-10T07:50:41;101138.81;;;15.27;100.00
62031;BME280;62035;52.094;5.112;2023-05-10T07:53:10;101137.19;;;15.18;100.00
62031;BME280;62035;52.094;5.112;2023-05-10T07:55:37;101144.16;;;15.35;100.00
62031;BME280;62035;52.094;5.112;2023-05-10T07:58:05;101143.50;;;15.25;100.00
62031;BME280;62035;52.094;5.112;2023-05-10T08:00:32;101143.81;;;15.39;100.00
62031;BME280;62035;52.094;5.112;2023-05-10T08:03:00;101148.38;;;15.22;100.00
62031;BME280;62035;52.094;5.112;2023-05-10T08:05:28;101132.75;;;15.33;100.00
62031;BME280;62035;52.094;5.112;2023-05-10T08:07:56;101140.81;;;15.33;100.00
62031;BME280;62035;52.094;5.112;2023-05-10T08:10:25;101148.84;;;15.33;100.00
62031;BME280;62035;52.094;5.112;2023-05-10T08:12:53;101153.72;;;15.22;100.00
62031;BME280;62035;52.094;5.112;2023-05-10T08:15:20;101153.44;;;15.09;100.00
62031;BME280;62035;52.094;5.112;2023-05-10T08:17:48;101158.97;;;15.15;100.00
62031;BME280;62035;52.094;5.112;2023-05-10T08:20:15;101162.06;;;15.43;100.00
62031;BME280;62035;52.094;5.112;2023-05-10T08:22:44;101162.59;;;15.78;100.00
62031;BME280;62035;52.094;5.112;2023-05-10T08:25:12;101166.41;;;15.91;100.00
62031;BME280;62035;52.094;5.112;2023-05-10T08:27:41;101159.94;;;15.78;100.00
62031;BME280;62035;52.094;5.112;2023-05-10T08:30:09;101170.84;;;15.76;100.00
62031;BME280;62035;52.094;5.112;2023-05-10T08:32:38;101174.84;;;15.80;100.00
62031;BME280;62035;52.094;5.112;2023-05-10T08:35:05;101181.59;;;15.68;100.00
62031;BME280;62035;52.094;5.112;2023-05-10T08:37:33;101181.91;;;15.73;100.00
62031;BME280;62035;52.094;5.112;2023-05-10T08:40:01;101170.88;;;15.68;100.00
62031;BME280;62035;52.094;5.112;2023-05-10T08:42:30;101185.97;;;16.00;100.00
62031;BME280;62035;52.094;5.112;2023-05-10T08:45:04;101187.63;;;16.01;100.00
62031;BME280;62035;52.094;5.112;2023-05-10T08:47:34;101183.84;;;15.95;100.00
62031;BME280;62035;52.094;5.112;2023-05-10T08:50:06;101191.75;;;16.20;100.00
62031;BME280;62035;52.094;5.112;2023-05-10T08:52:38;101191.56;;;16.44;100.00
62031;BME280;62035;52.094;5.112;2023-05-10T08:55:07;101197.59;;;16.23;100.00
62031;BME280;62035;52.094;5.112;2023-05-10T08:57:35;101186.97;;;16.30;100.00
62031;BME280;62035;52.094;5.112;2023-05-10T09:00:06;101191.06;;;16.41;100.00
62031;BME280;62035;52.094;5.112;2023-05-10T09:02:36;101195.44;;;16.19;100.00
62031;BME280;62035;52.094;5.112;2023-05-10T09:05:05;101197.25;;;16.26;100.00
62031;BME280;62035;52.094;5.112;2023-05-10T09:07:33;101190.06;;;16.42;100.00
62031;BME280;62035;52.094;5.112;2023-05-10T09:10:02;101186.34;;;16.74;100.00
62031;BME280;62035;52.094;5.112;2023-05-10T09:12:31;101192.72;;;16.73;100.00
62031;BME280;62035;52.094;5.112;2023-05-10T09:14:59;101195.84;;;16.99;100.00
62031;BME280;62035;52.094;5.112;2023-05-10T09:17:30;101198.31;;;16.86;100.00
62031;BME280;62035;52.094;5.112;2023-05-10T09:19:58;101184.00;;;17.23;100.00
62031;BME280;62035;52.094;5.112;2023-05-10T09:22:26;101200.69;;;17.62;100.00
62031;BME280;62035;52.094;5.112;2023-05-10T09:25:07;101196.97;;;17.63;100.00
62031;BME280;62035;52.094;5.112;2023-05-10T09:27:37;101201.91;;;17.30;100.00
62031;BME280;62035;52.094;5.112;2023-05-10T09:30:07;101198.09;;;17.10;100.00
62031;BME280;62035;52.094;5.112;2023-05-10T09:32:38;101203.97;;;16.76;100.00
62031;BME280;62035;52.094;5.112;2023-05-10T09:35:08;101205.47;;;16.48;100.00
62031;BME280;62035;52.094;5.112;2023-05-10T09:37:36;101218.00;;;16.55;100.00
62031;BME280;62035;52.094;5.112;2023-05-10T09:40:08;101217.72;;;16.50;100.00
62031;BME280;62035;52.094;5.112;2023-05-10T09:42:42;101226.38;;;16.38;100.00
62031;BME280;62035;52.094;5.112;2023-05-10T09:45:17;101223.75;;;16.29;100.00
62031;BME280;62035;52.094;5.112;2023-05-10T09:47:46;101219.22;;;16.30;100.00
62031;BME280;62035;52.094;5.112;2023-05-10T09:50:14;101221.41;;;16.26;100.00
62031;BME280;62035;52.094;5.112;2023-05-10T09:52:50;101223.09;;;16.50;100.00
62031;BME280;62035;52.094;5.112;2023-05-10T09:55:20;101224.19;;;16.64;100.00
62031;BME280;62035;52.094;5.112;2023-05-10T09:57:58;101217.41;;;16.76;100.00
62031;BME280;62035;52.094;5.112;2023-05-10T10:00:27;101234.88;;;16.95;100.00
62031;BME280;62035;52.094;5.112;2023-05-10T10:02:57;101222.50;;;16.86;100.00
62031;BME280;62035;52.094;5.112;2023-05-10T10:05:29;101229.00;;;16.77;100.00
62031;BME280;62035;52.094;5.112;2023-05-10T10:07:58;101237.84;;;16.54;100.00
62031;BME280;62035;52.094;5.112;2023-05-10T10:10:27;101230.72;;;16.70;100.00
62031;BME280;62035;52.094;5.112;2023-05-10T10:12:55;101240.72;;;16.98;100.00
62031;BME280;62035;52.094;5.112;2023-05-10T10:15:23;101242.44;;;16.91;100.00
62031;BME280;62035;52.094;5.112;2023-05-10T10:17:52;101252.78;;;16.80;100.00
62031;BME280;62035;52.094;5.112;2023-05-10T10:20:22;101247.13;;;16.75;100.00
62031;BME280;62035;52.094;5.112;2023-05-10T10:22:51;101251.19;;;16.71;100.00
62031;BME280;62035;52.094;5.112;2023-05-10T10:25:19;101251.19;;;16.71;100.00
62031;BME280;62035;52.094;5.112;2023-05-10T10:27:59;101255.50;;;16.49;100.00
62031;BME280;62035;52.094;5.112;2023-05-10T10:30:40;101247.03;;;16.68;100.00
62031;BME280;62035;52.094;5.112;2023-05-10T10:33:30;101255.66;;;17.01;100.00
62031;BME280;62035;52.094;5.112;2023-05-10T10:36:07;101246.81;;;17.15;100.00
62031;BME280;62035;52.094;5.112;2023-05-10T10:38:37;101245.59;;;17.32;100.00
62031;BME280;62035;52.094;5.112;2023-05-10T10:41:32;101249.66;;;17.66;100.00
62031;BME280;62035;52.094;5.112;2023-05-10T10:44:28;101239.03;;;18.09;100.00
62031;BME280;62035;52.094;5.112;2023-05-10T10:47:04;101233.63;;;18.23;100.00
62031;BME280;62035;52.094;5.112;2023-05-10T10:49:38;101243.75;;;18.21;100.00
62031;BME280;62035;52.094;5.112;2023-05-10T10:52:31;101240.03;;;18.44;100.00
62031;BME280;62035;52.094;5.112;2023-05-10T10:55:02;101239.56;;;18.97;100.00
62031;BME280;62035;52.094;5.112;2023-05-10T10:57:34;101236.19;;;19.17;100.00
62031;BME280;62035;52.094;5.112;2023-05-10T11:00:22;101228.13;;;18.95;100.00
62031;BME280;62035;52.094;5.112;2023-05-10T11:02:57;101233.78;;;19.01;100.00
62031;BME280;62035;52.094;5.112;2023-05-10T11:05:44;101235.78;;;18.92;100.00
62031;BME280;62035;52.094;5.112;2023-05-10T11:08:25;101218.75;;;18.49;100.00
62031;BME280;62035;52.094;5.112;2023-05-10T11:11:05;101231.03;;;18.15;100.00
62031;BME280;62035;52.094;5.112;2023-05-10T11:13:38;101250.06;;;18.14;100.00
62031;BME280;62035;52.094;5.112;2023-05-10T11:16:11;101244.44;;;17.79;100.00
62031;BME280;62035;52.094;5.112;2023-05-10T11:19:01;101249.28;;;17.84;100.00
62031;BME280;62035;52.094;5.112;2023-05-10T11:21:30;101244.09;;;17.82;100.00
62031;BME280;62035;52.094;5.112;2023-05-10T11:24:01;101241.38;;;17.97;100.00
62031;BME280;62035;52.094;5.112;2023-05-10T11:26:34;101245.81;;;18.05;100.00
62031;BME280;62035;52.094;5.112;2023-05-10T11:29:03;101247.66;;;18.19;100.00
62031;BME280;62035;52.094;5.112;2023-05-10T11:31:31;101243.47;;;18.16;100.00
62031;BME280;62035;52.094;5.112;2023-05-10T11:33:59;101242.28;;;18.40;100.00
62031;BME280;62035;52.094;5.112;2023-05-10T11:36:29;101240.69;;;18.46;100.00
62031;BME280;62035;52.094;5.112;2023-05-10T11:39:02;101243.53;;;18.59;100.00
62031;BME280;62035;52.094;5.112;2023-05-10T11:41:31;101239.94;;;18.94;100.00
62031;BME280;62035;52.094;5.112;2023-05-10T11:43:59;101238.16;;;19.29;100.00
62031;BME280;62035;52.094;5.112;2023-05-10T11:46:27;101215.91;;;19.27;100.00
62031;BME280;62035;52.094;5.112;2023-05-10T11:48:58;101244.94;;;19.81;100.00
62031;BME280;62035;52.094;5.112;2023-05-10T11:51:33;101252.28;;;19.31;100.00
62031;BME280;62035;52.094;5.112;2023-05-10T11:54:07;101244.63;;;19.07;100.00
62031;BME280;62035;52.094;5.112;2023-05-10T11:56:37;101241.72;;;19.58;100.00
62031;BME280;62035;52.094;5.112;2023-05-10T11:59:05;101243.38;;;19.59;100.00
62031;BME280;62035;52.094;5.112;2023-05-10T12:01:33;101245.41;;;19.29;100.00
62031;BME280;62035;52.094;5.112;2023-05-10T12:04:01;101248.63;;;18.90;100.00
62031;BME280;62035;52.094;5.112;2023-05-10T12:06:31;101251.47;;;18.46;100.00
62031;BME280;62035;52.094;5.112;2023-05-10T12:09:06;101263.44;;;18.22;100.00
62031;BME280;62035;52.094;5.112;2023-05-10T12:11:37;101281.59;;;17.31;100.00
62031;BME280;62035;52.094;5.112;2023-05-10T12:14:06;101271.84;;;17.16;100.00
62031;BME280;62035;52.094;5.112;2023-05-10T12:16:35;101287.25;;;16.99;100.00
62031;BME280;62035;52.094;5.112;2023-05-10T12:19:03;101293.41;;;16.85;100.00
62031;BME280;62035;52.094;5.112;2023-05-10T12:21:31;101307.16;;;16.59;100.00
62031;BME280;62035;52.094;5.112;2023-05-10T12:24:01;101328.47;;;15.82;100.00
62031;BME280;62035;52.094;5.112;2023-05-10T12:26:32;101340.53;;;18.23;100.00
62031;BME280;62035;52.094;5.112;2023-05-10T12:29:13;101312.94;;;19.57;100.00
62031;BME280;62035;52.094;5.112;2023-05-10T12:31:52;101311.56;;;19.46;100.00
62031;BME280;62035;52.094;5.112;2023-05-10T12:34:25;101325.84;;;16.52;100.00
62031;BME280;62035;52.094;5.112;2023-05-10T12:36:54;101344.75;;;15.24;100.00
62031;BME280;62035;52.094;5.112;2023-05-10T12:39:23;101359.50;;;15.04;100.00
62031;BME280;62035;52.094;5.112;2023-05-10T12:41:52;101365.06;;;15.10;100.00
62031;BME280;62035;52.094;5.112;2023-05-10T12:44:20;101370.09;;;15.13;100.00
62031;BME280;62035;52.094;5.112;2023-05-10T12:46:48;101375.25;;;15.23;100.00
62031;BME280;62035;52.094;5.112;2023-05-10T12:49:15;101376.47;;;15.37;100.00
62031;BME280;62035;52.094;5.112;2023-05-10T12:51:44;101380.16;;;15.44;100.00
62031;BME280;62035;52.094;5.112;2023-05-10T12:54:12;101370.44;;;15.43;100.00
62031;BME280;62035;52.094;5.112;2023-05-10T12:56:39;101379.81;;;15.30;100.00